createdAt,value
2022-09-01T00:00:38.247Z,98303.72
2022-09-01T00:02:39.685Z,98301.25
2022-09-01T00:04:41.078Z,98297.06
2022-09-01T00:06:44.196Z,98301.41
2022-09-01T00:08:45.490Z,98303.13
2022-09-01T00:10:47.135Z,98297.19
2022-09-01T00:12:48.469Z,98296.34
2022-09-01T00:14:49.786Z,98305.00
2022-09-01T00:16:51.871Z,98297.31
2022-09-01T00:18:53.224Z,98300.78
2022-09-01T00:20:59.156Z,98296.53
2022-09-01T00:23:00.777Z,98301.66
2022-09-01T00:25:02.199Z,98294.94
2022-09-01T00:27:03.537Z,98296.66
2022-09-01T00:29:04.898Z,98295.00
2022-09-01T00:31:06.472Z,98303.53
2022-09-01T00:33:08.271Z,98305.25
2022-09-01T00:35:09.966Z,98301.88
2022-09-01T00:37:11.282Z,98304.41
2022-09-01T00:39:12.590Z,98300.19
2022-09-01T00:41:13.902Z,98307.00
2022-09-01T00:43:15.264Z,98312.13
2022-09-01T00:45:16.649Z,98303.59
2022-09-01T00:47:19.311Z,98304.50
2022-09-01T00:49:20.685Z,98298.53
2022-09-01T00:51:21.994Z,98306.97
2022-09-01T00:53:23.316Z,98299.31
2022-09-01T00:55:24.620Z,98297.69
2022-09-01T00:57:25.923Z,98299.41
2022-09-01T00:59:27.456Z,98286.63
2022-09-01T01:01:28.918Z,98290.03
2022-09-01T01:03:33.995Z,98292.63
2022-09-01T01:05:36.495Z,98293.53
2022-09-01T01:07:41.628Z,98298.66
2022-09-01T01:09:47.391Z,98297.78
2022-09-01T01:11:48.800Z,98291.84
2022-09-01T01:13:51.080Z,98291.88
2022-09-01T01:15:52.396Z,98297.00
2022-09-01T01:17:53.710Z,98297.81
2022-09-01T01:20:13.712Z,98300.38
2022-09-01T01:22:33.631Z,98284.22
2022-09-01T01:24:34.943Z,98290.22
2022-09-01T01:26:37.206Z,98296.22
2022-09-01T01:28:39.158Z,98287.69
2022-09-01T01:30:40.514Z,98287.69
2022-09-01T01:32:43.193Z,98286.84
2022-09-01T01:34:46.883Z,98286.88
2022-09-01T01:36:50.630Z,98286.84
2022-09-01T01:38:52.529Z,98280.00
2022-09-01T01:40:54.527Z,98285.94
2022-09-01T01:42:57.283Z,98291.03
2022-09-01T01:44:58.654Z,98285.13
2022-09-01T01:46:59.962Z,98282.56
2022-09-01T01:49:04.498Z,98280.88
2022-09-01T01:51:05.863Z,98280.06
2022-09-01T01:53:11.183Z,98281.78
2022-09-01T01:55:13.059Z,98285.13
2022-09-01T01:57:17.320Z,98280.88
2022-09-01T01:59:19.619Z,98286.03
2022-09-01T02:01:22.149Z,98280.13
2022-09-01T02:03:25.040Z,98281.88
2022-09-01T02:05:26.354Z,98308.25
2022-09-01T02:07:27.674Z,98288.66
2022-09-01T02:09:34.283Z,98275.91
2022-09-01T02:11:37.862Z,98284.50
2022-09-01T02:13:39.807Z,98289.63
2022-09-01T02:15:44.587Z,98281.94
2022-09-01T02:17:47.072Z,98289.56
2022-09-01T02:19:48.461Z,98292.09
2022-09-01T02:21:54.347Z,98284.38
2022-09-01T02:24:01.061Z,98290.31
2022-09-01T02:26:16.077Z,98283.47
2022-09-01T02:28:20.172Z,98283.44
2022-09-01T02:30:22.317Z,98278.31
2022-09-01T02:32:23.703Z,98295.41
2022-09-01T02:34:25.999Z,98274.13
2022-09-01T02:36:28.068Z,98273.31
2022-09-01T02:38:29.728Z,98278.41
2022-09-01T02:40:31.528Z,98274.13
2022-09-01T02:42:32.899Z,98260.59
2022-09-01T02:44:36.242Z,98266.59
2022-09-01T02:46:42.005Z,98267.41
2022-09-01T02:48:43.497Z,98269.16
2022-09-01T02:50:44.904Z,98262.34
2022-09-01T02:52:48.562Z,98258.94
2022-09-01T02:54:50.722Z,98259.78
2022-09-01T02:56:54.471Z,98268.31
2022-09-01T02:58:55.822Z,98270.00
2022-09-01T03:00:57.211Z,98269.09
2022-09-01T03:02:58.915Z,98264.84
2022-09-01T03:05:00.335Z,98258.88
2022-09-01T03:07:01.935Z,98258.03
2022-09-01T03:09:03.281Z,98269.16
2022-09-01T03:11:12.675Z,98269.16
2022-09-01T03:13:14.539Z,98267.50
2022-09-01T03:15:15.847Z,98269.22
2022-09-01T03:17:17.179Z,98264.97
2022-09-01T03:19:19.190Z,98264.13
2022-09-01T03:21:20.543Z,98271.81
2022-09-01T03:23:21.881Z,98272.69
2022-09-01T03:25:25.128Z,98264.16
2022-09-01T03:27:26.448Z,98271.78
2022-09-01T03:29:27.777Z,98261.53
2022-09-01T03:31:31.122Z,98267.56
2022-09-01T03:33:32.992Z,98265.06
2022-09-01T03:35:34.295Z,98274.47
2022-09-01T03:37:37.199Z,98258.31
2022-09-01T03:39:38.543Z,98266.81
2022-09-01T03:41:39.863Z,98258.31
2022-09-01T03:43:46.926Z,98255.75
2022-09-01T03:45:48.713Z,98257.50
2022-09-01T03:47:50.132Z,98262.63
2022-09-01T03:49:51.788Z,98267.72
2022-09-01T03:51:53.954Z,98263.47
2022-09-01T03:53:55.507Z,98264.28
2022-09-01T03:56:00.197Z,98254.09
2022-09-01T03:58:03.280Z,98263.47
2022-09-01T04:00:04.718Z,98270.28
2022-09-01T04:02:06.407Z,98267.78
2022-09-01T04:04:07.895Z,98269.47
2022-09-01T04:06:09.250Z,98266.13
2022-09-01T04:08:11.499Z,98260.19
2022-09-01T04:10:12.836Z,98259.31
2022-09-01T04:12:15.804Z,98269.50
2022-09-01T04:14:17.232Z,98257.63
2022-09-01T04:16:38.541Z,98262.72
2022-09-01T04:18:40.120Z,98265.34
2022-09-01T04:20:50.867Z,98252.44
2022-09-01T04:22:52.772Z,98263.38
2022-09-01T04:24:54.159Z,98254.06
2022-09-01T04:26:55.720Z,98248.09
2022-09-01T04:28:57.269Z,98258.34
2022-09-01T04:30:58.751Z,98256.59
2022-09-01T04:33:00.114Z,98270.28
2022-09-01T04:35:02.165Z,98265.22
2022-09-01T04:37:03.675Z,98269.44
2022-09-01T04:39:08.840Z,98272.88
2022-09-01T04:41:17.624Z,98281.38
2022-09-01T04:43:18.995Z,98273.75
2022-09-01T04:45:22.369Z,98272.06
2022-09-01T04:47:31.742Z,98272.91
2022-09-01T04:49:37.637Z,98278.75
2022-09-01T04:51:39.007Z,98271.94
2022-09-01T04:53:40.879Z,98278.75
2022-09-01T04:55:45.131Z,98274.53
2022-09-01T04:57:47.318Z,98277.09
2022-09-01T04:59:48.643Z,98268.59
2022-09-01T05:01:50.919Z,98277.16
2022-09-01T05:04:01.566Z,97974.22
2022-09-01T05:06:05.383Z,98278.00
2022-09-01T05:08:06.925Z,98288.22
2022-09-01T05:10:08.315Z,98275.44
2022-09-01T05:12:12.802Z,98284.00
2022-09-01T05:14:20.598Z,98278.06
2022-09-01T05:16:25.505Z,98303.63
2022-09-01T05:18:28.145Z,98285.69
2022-09-01T05:20:30.189Z,98278.81
2022-09-01T05:22:31.536Z,98279.72
2022-09-01T05:24:39.849Z,98283.06
2022-09-01T05:26:44.240Z,98283.94
2022-09-01T05:28:45.579Z,98276.25
2022-09-01T05:30:46.943Z,98276.19
2022-09-01T05:32:49.197Z,98271.94
2022-09-01T05:34:51.847Z,98271.94
2022-09-01T05:36:53.210Z,98268.53
2022-09-01T05:38:54.754Z,98276.19
2022-09-01T05:40:56.175Z,98272.84
2022-09-01T05:42:58.010Z,98276.25
2022-09-01T05:45:00.193Z,98278.81
2022-09-01T05:47:03.243Z,98283.94
2022-09-01T05:49:07.010Z,98287.38
2022-09-01T05:51:22.223Z,98275.44
2022-09-01T05:53:31.067Z,98280.50
2022-09-01T05:55:37.658Z,98282.22
2022-09-01T05:57:39.932Z,98284.72
2022-09-01T05:59:41.461Z,98290.63
2022-09-01T06:01:46.876Z,98286.19
2022-09-01T06:03:54.883Z,98293.88
2022-09-01T06:05:58.688Z,98293.19
2022-09-01T06:08:00.007Z,98292.38
2022-09-01T06:10:01.344Z,98294.97
2022-09-01T06:12:02.815Z,98300.09
2022-09-01T06:14:04.476Z,98299.25
2022-09-01T06:16:05.881Z,98293.88
2022-09-01T06:18:07.288Z,98298.19
2022-09-01T06:20:10.676Z,98293.22
2022-09-01T06:22:12.311Z,98295.69
2022-09-01T06:24:13.894Z,98298.41
2022-09-01T06:26:15.215Z,98289.22
2022-09-01T06:28:16.579Z,98301.69
2022-09-01T06:30:23.859Z,98293.28
2022-09-01T06:32:27.088Z,98286.69
2022-09-01T06:34:29.605Z,98299.56
2022-09-01T06:36:35.145Z,98293.75
2022-09-01T06:38:37.655Z,98299.72
2022-09-01T06:40:40.991Z,98286.13
2022-09-01T06:42:43.420Z,98294.69
2022-09-01T06:44:46.057Z,98299.81
2022-09-01T06:46:47.680Z,98298.94
2022-09-01T06:48:49.107Z,98304.03
2022-09-01T06:53:32.568Z,98303.28
2022-09-01T06:55:34.713Z,98316.06
2022-09-01T06:59:59.490Z,98312.69
2022-09-01T07:04:23.202Z,98314.44
2022-09-01T07:11:23.061Z,98316.16
2022-09-01T07:13:39.680Z,98310.22
2022-09-01T07:18:22.473Z,98311.09
2022-09-01T07:20:24.549Z,98307.69
2022-09-01T07:27:09.546Z,98322.19
2022-09-01T07:29:12.277Z,98317.94
2022-09-01T07:33:44.453Z,98358.84
2022-09-01T07:42:57.802Z,98318.66
2022-09-01T07:43:06.686Z,98320.59
2022-09-01T07:52:15.555Z,98327.44
2022-09-01T07:54:25.234Z,98330.00
2022-09-01T07:56:26.680Z,98328.34
2022-09-01T07:58:28.717Z,98330.88
2022-09-01T08:00:31.755Z,98338.56
2022-09-01T08:02:33.349Z,98332.59
2022-09-01T08:04:34.756Z,98336.00
2022-09-01T08:06:39.280Z,98341.09
2022-09-01T08:08:42.233Z,98336.91
2022-09-01T08:10:44.536Z,98335.16
2022-09-01T08:12:45.875Z,98338.56
2022-09-01T08:14:47.503Z,98338.56
2022-09-01T08:19:17.806Z,98343.78
2022-09-01T08:21:19.819Z,98353.53
2022-09-01T08:23:36.187Z,98350.91
2022-09-01T08:25:37.866Z,98353.47
2022-09-01T08:27:39.267Z,98356.88
2022-09-01T08:29:40.653Z,98357.41
2022-09-01T08:31:42.199Z,98359.03
2022-09-01T08:33:43.636Z,98352.13
2022-09-01T08:35:44.994Z,98350.91
2022-09-01T08:37:46.313Z,98346.13
2022-09-01T08:39:48.829Z,98355.38
2022-09-01T08:41:50.215Z,98355.16
2022-09-01T08:43:51.596Z,98355.28
2022-09-01T08:45:56.094Z,98357.03
2022-09-01T08:48:28.994Z,98360.47
2022-09-01T08:50:20.752Z,98359.41
2022-09-01T08:52:22.229Z,98359.66
2022-09-01T08:54:29.558Z,98356.50
2022-09-01T08:56:36.107Z,98357.84
2022-09-01T08:58:37.596Z,98351.88
2022-09-01T09:00:39.534Z,98355.06
2022-09-01T09:02:41.044Z,98365.06
2022-09-01T09:04:42.452Z,98357.19
2022-09-01T09:06:43.769Z,98359.75
2022-09-01T09:08:45.144Z,98356.53
2022-09-01T09:10:49.739Z,98355.38
2022-09-01T09:12:52.835Z,98356.84
2022-09-01T09:14:54.175Z,98359.41
2022-09-01T09:16:56.051Z,98358.81
2022-09-01T09:18:57.914Z,98357.25
2022-09-01T09:20:59.288Z,98363.03
2022-09-01T09:23:00.605Z,98356.72
2022-09-01T09:25:01.945Z,98347.72
2022-09-01T09:27:03.697Z,98355.72
2022-09-01T09:29:05.536Z,98356.06
2022-09-01T09:31:08.082Z,98348.34
2022-09-01T09:33:49.795Z,98348.91
2022-09-01T09:35:33.240Z,98343.28
2022-09-01T09:37:34.899Z,98342.59
2022-09-01T09:39:36.308Z,98346.94
2022-09-01T09:41:37.778Z,98339.38
2022-09-01T09:43:42.229Z,98344.13
2022-09-01T09:45:46.017Z,98343.13
2022-09-01T09:47:48.478Z,98344.28
2022-09-01T09:49:49.921Z,98345.41
2022-09-01T09:51:51.470Z,98340.41
2022-09-01T09:53:52.842Z,98347.28
2022-09-01T09:55:56.289Z,98343.03
2022-09-01T09:57:57.874Z,98342.25
2022-09-01T10:00:00.537Z,98343.09
2022-09-01T10:02:02.830Z,98343.94
2022-09-01T10:04:04.273Z,98340.59
2022-09-01T10:06:05.745Z,98344.06
2022-09-01T10:08:08.709Z,98338.03
2022-09-01T10:10:10.048Z,98348.28
2022-09-01T10:12:14.344Z,98343.16
2022-09-01T10:14:23.595Z,98338.81
2022-09-01T10:16:37.595Z,98338.81
2022-09-01T10:18:39.094Z,98337.91
2022-09-01T10:20:40.563Z,98336.19
2022-09-01T10:22:42.040Z,98339.84
2022-09-01T10:24:50.181Z,98340.03
2022-09-01T10:26:52.089Z,98341.88
2022-09-01T10:28:53.460Z,98344.47
2022-09-01T10:30:54.886Z,98336.03
2022-09-01T10:32:58.079Z,98333.81
2022-09-01T10:35:03.077Z,98332.34
2022-09-01T10:37:04.415Z,98342.06
2022-09-01T10:39:11.772Z,98344.06
2022-09-01T10:41:15.720Z,98339.91
2022-09-01T10:43:17.585Z,98338.25
2022-09-01T10:45:19.730Z,98341.72
2022-09-01T10:47:21.219Z,98340.09
2022-09-01T10:49:25.151Z,98348.63
2022-09-01T10:51:36.255Z,98353.00
2022-09-01T10:53:51.280Z,98348.81
2022-09-01T10:55:58.304Z,98345.38
2022-09-01T10:59:29.621Z,98339.47
2022-09-01T11:00:37.483Z,98338.69
2022-09-01T11:02:42.429Z,98340.41
2022-09-01T11:04:48.323Z,98343.81
2022-09-01T11:09:11.078Z,98338.78
2022-09-01T11:11:12.421Z,98336.25
2022-09-01T11:13:15.692Z,98330.34
2022-09-01T11:15:17.175Z,98344.00
2022-09-01T11:17:18.578Z,98336.94
2022-09-01T11:19:21.792Z,98331.13
2022-09-01T11:21:23.132Z,98344.16
2022-09-01T11:23:24.950Z,98338.25
2022-09-01T11:25:26.681Z,98334.91
2022-09-01T11:27:39.673Z,98341.84
2022-09-01T11:29:41.124Z,98339.09
2022-09-01T11:31:42.567Z,98342.09
2022-09-01T11:33:44.253Z,98335.31
2022-09-01T11:35:45.605Z,98336.41
2022-09-01T11:37:46.949Z,98338.31
2022-09-01T11:39:48.289Z,98334.22
2022-09-01T11:41:54.479Z,98330.03
2022-09-01T11:43:58.267Z,98328.41
2022-09-01T11:45:59.676Z,98338.66
2022-09-01T11:48:01.065Z,98332.78
2022-09-01T11:50:02.503Z,98334.50
2022-09-01T11:52:03.844Z,98333.69
2022-09-01T11:54:05.172Z,98331.22
2022-09-01T11:56:08.052Z,98329.56
2022-09-01T11:58:09.354Z,98333.00
2022-09-01T12:00:10.676Z,98332.22
2022-09-01T12:02:13.005Z,98328.84
2022-09-01T12:04:14.452Z,98331.41
2022-09-01T12:06:15.829Z,98141.97
2022-09-01T12:08:23.943Z,98331.47
2022-09-01T12:10:26.363Z,98326.41
2022-09-01T12:12:27.668Z,98332.38
2022-09-01T12:14:43.419Z,98331.56
2022-09-01T12:16:50.375Z,98323.06
2022-09-01T12:18:51.765Z,98332.44
2022-09-01T12:20:53.504Z,98328.16
2022-09-01T12:22:55.356Z,98323.94
2022-09-01T12:24:56.732Z,98324.81
2022-09-01T12:26:59.060Z,98321.41
2022-09-01T12:29:00.408Z,98324.81
2022-09-01T12:31:01.790Z,98322.25
2022-09-01T12:35:24.591Z,98325.66
2022-09-01T12:37:26.398Z,98323.09
2022-09-01T12:39:28.143Z,98323.84
2022-09-01T12:41:29.491Z,98319.66
2022-09-01T12:43:30.916Z,98323.09
2022-09-01T12:45:32.289Z,98325.66
2022-09-01T12:47:33.641Z,98329.13
2022-09-01T12:49:35.349Z,98327.47
2022-09-01T12:51:37.441Z,98321.50
2022-09-01T12:53:38.849Z,98324.06
2022-09-01T12:55:47.841Z,98316.44
2022-09-01T12:57:51.319Z,98325.81
2022-09-01T12:59:52.706Z,98319.91
2022-09-01T13:01:54.292Z,98317.34
2022-09-01T13:03:55.711Z,98313.97
2022-09-01T13:05:58.348Z,98320.78
2022-09-01T13:07:59.792Z,98313.13
2022-09-01T13:10:01.233Z,98315.75
2022-09-01T13:12:06.774Z,98312.34
2022-09-01T13:14:08.468Z,98317.44
2022-09-01T13:16:13.850Z,98314.09
2022-09-01T13:18:15.394Z,98311.53
2022-09-01T13:20:16.724Z,98312.38
2022-09-01T13:22:18.055Z,98312.38
2022-09-01T13:24:19.439Z,98311.59
2022-09-01T13:26:21.565Z,98303.91
2022-09-01T13:30:31.242Z,98309.88
2022-09-01T13:32:32.618Z,98307.34
2022-09-01T13:34:34.138Z,98313.31
2022-09-01T13:36:45.278Z,98300.56
2022-09-01T13:38:50.559Z,98303.13
2022-09-01T13:40:52.152Z,98301.47
2022-09-01T13:42:53.518Z,98309.94
2022-09-01T13:44:55.539Z,98300.59
2022-09-01T13:47:00.551Z,98312.53
2022-09-01T13:49:04.858Z,98307.47
2022-09-01T13:51:25.104Z,98317.69
2022-09-01T13:53:26.423Z,98312.59
2022-09-01T13:55:27.773Z,98312.59
2022-09-01T13:57:31.586Z,98302.38
2022-09-01T13:59:37.814Z,98304.09
2022-09-01T14:01:41.942Z,98310.03
2022-09-01T14:03:44.010Z,98312.59
2022-09-01T14:05:45.435Z,98301.53
2022-09-01T14:07:48.988Z,98314.31
2022-09-01T14:09:50.307Z,98305.84
2022-09-01T14:11:51.641Z,98303.28
2022-09-01T14:13:52.975Z,98310.94
2022-09-01T14:15:54.476Z,98309.28
2022-09-01T14:17:56.478Z,98309.28
2022-09-01T14:19:57.799Z,98310.13
2022-09-01T14:21:59.128Z,98308.44
2022-09-01T14:24:01.030Z,98300.78
2022-09-01T14:26:02.440Z,98305.88
2022-09-01T14:28:03.970Z,98306.78
2022-09-01T14:30:05.994Z,98305.09
2022-09-01T14:32:07.960Z,98307.63
2022-09-01T14:34:09.887Z,98313.59
2022-09-01T14:36:15.002Z,98303.38
2022-09-01T14:38:17.070Z,98300.00
2022-09-01T14:40:18.494Z,98309.38
2022-09-01T14:42:19.936Z,98305.97
2022-09-01T14:44:21.252Z,98138.38
2022-09-01T14:46:23.207Z,98302.56
2022-09-01T14:48:24.667Z,98300.91
2022-09-01T14:50:26.002Z,98299.22
2022-09-01T14:52:27.438Z,98306.03
2022-09-01T14:54:28.808Z,98299.25
2022-09-01T14:56:30.181Z,98295.84
2022-09-01T14:58:31.542Z,98301.81
2022-09-01T15:00:35.142Z,98295.84
2022-09-01T15:02:36.638Z,98290.75
2022-09-01T15:04:38.075Z,98297.56
2022-09-01T15:06:39.424Z,98283.97
2022-09-01T15:08:40.742Z,98295.00
2022-09-01T15:10:42.076Z,98292.47
2022-09-01T15:12:43.593Z,98292.50
2022-09-01T15:14:45.676Z,98289.09
2022-09-01T15:16:47.678Z,98285.69
2022-09-01T15:18:49.016Z,98289.13
2022-09-01T15:20:51.271Z,98292.53
2022-09-01T15:22:52.739Z,98284.03
2022-09-01T15:24:54.062Z,98284.88
2022-09-01T15:26:55.475Z,98291.69
2022-09-01T15:28:59.635Z,98292.59
2022-09-01T15:31:01.021Z,98287.47
2022-09-01T15:33:02.448Z,98288.34
2022-09-01T15:35:03.846Z,98302.84
2022-09-01T15:37:05.199Z,98289.19
2022-09-01T15:39:06.531Z,98292.63
2022-09-01T15:41:07.913Z,98290.09
2022-09-01T15:43:09.339Z,98290.09
2022-09-01T15:45:10.676Z,98284.16
2022-09-01T15:47:12.012Z,98285.88
2022-09-01T15:49:13.420Z,98286.72
2022-09-01T15:51:16.232Z,98279.06
2022-09-01T15:53:18.959Z,98280.78
2022-09-01T15:55:20.359Z,98283.34
2022-09-01T15:57:21.749Z,98281.66
2022-09-01T15:59:23.103Z,98279.13
2022-09-01T16:01:24.514Z,98284.22
2022-09-01T16:03:26.239Z,98277.41
2022-09-01T16:05:27.573Z,98283.38
2022-09-01T16:07:28.917Z,98274.91
2022-09-01T16:09:30.462Z,98285.94
2022-09-01T16:11:31.796Z,98274.06
2022-09-01T16:13:33.159Z,98273.22
2022-09-01T16:15:35.438Z,98274.91
2022-09-01T16:17:37.779Z,98266.44
2022-09-01T16:19:39.512Z,98274.94
2022-09-01T16:21:40.932Z,98265.59
2022-09-01T16:23:42.325Z,98268.16
2022-09-01T16:25:43.672Z,98265.63
2022-09-01T16:27:45.684Z,98265.63
2022-09-01T16:29:47.453Z,98267.34
2022-09-01T16:31:48.817Z,98266.50
2022-09-01T16:33:50.813Z,98262.25
2022-09-01T16:35:53.325Z,98264.78
2022-09-01T16:37:54.647Z,98266.53
2022-09-01T16:39:55.966Z,98270.78
2022-09-01T16:41:58.674Z,98266.53
2022-09-01T16:44:00.346Z,98264.88
2022-09-01T16:46:01.663Z,98261.44
2022-09-01T16:48:02.980Z,98262.31
2022-09-01T16:50:06.260Z,98259.78
2022-09-01T16:52:08.209Z,98262.34
2022-09-01T16:54:10.279Z,98262.38
2022-09-01T16:56:11.647Z,98257.25
2022-09-01T16:58:12.981Z,98258.13
2022-09-01T17:00:20.787Z,98263.22
2022-09-01T17:02:23.094Z,98259.81
2022-09-01T17:04:24.440Z,98260.69
2022-09-01T17:06:26.274Z,98258.16
2022-09-01T17:08:27.628Z,98262.41
2022-09-01T17:10:28.943Z,98263.28
2022-09-01T17:12:30.770Z,98262.44
2022-09-01T17:14:32.098Z,98260.75
2022-09-01T17:16:37.017Z,98263.31
2022-09-01T17:18:38.576Z,98261.63
2022-09-01T17:20:40.204Z,98268.41
2022-09-01T17:22:41.520Z,98265.06
2022-09-01T17:24:42.933Z,98264.22
2022-09-01T17:26:50.657Z,98267.59
2022-09-01T17:28:52.118Z,98275.25
2022-09-01T17:30:53.515Z,98269.31
2022-09-01T17:32:55.063Z,98271.03
2022-09-01T17:34:56.362Z,98276.13
2022-09-01T17:36:57.677Z,98279.53
2022-09-01T17:39:01.117Z,98282.97
2022-09-01T17:41:04.563Z,98280.41
2022-09-01T17:43:06.224Z,98288.06
2022-09-01T17:45:10.159Z,98283.84
2022-09-01T17:47:12.681Z,98279.59
2022-09-01T17:49:14.044Z,98281.31
2022-09-01T17:51:15.398Z,98283.88
2022-09-01T17:53:17.201Z,98285.56
2022-09-01T17:55:18.575Z,98287.31
2022-09-01T17:57:19.947Z,98294.97
2022-09-01T17:59:22.429Z,98285.59
2022-09-01T18:01:23.856Z,98284.75
2022-09-01T18:03:26.192Z,98289.84
2022-09-01T18:05:27.561Z,98289.03
2022-09-01T18:07:28.882Z,98291.59
2022-09-01T18:09:30.244Z,98295.81
2022-09-01T18:11:31.764Z,98301.81
2022-09-01T18:13:51.848Z,98299.25
2022-09-01T18:15:58.433Z,98303.50
2022-09-01T18:18:01.746Z,98303.53
2022-09-01T18:20:03.095Z,98308.66
2022-09-01T18:22:04.455Z,98312.06
2022-09-01T18:24:05.798Z,98310.34
2022-09-01T18:26:07.139Z,98308.66
2022-09-01T18:28:10.324Z,98310.34
2022-09-01T18:30:11.684Z,98318.03
2022-09-01T18:32:13.087Z,98313.78
2022-09-01T18:34:14.434Z,98317.19
2022-09-01T18:36:15.819Z,98314.66
2022-09-01T18:38:17.137Z,98321.44
2022-09-01T18:40:18.553Z,98322.31
2022-09-01T18:42:19.891Z,98317.22
2022-09-01T18:44:21.407Z,98318.91
2022-09-01T18:46:22.863Z,98318.94
2022-09-01T18:48:24.292Z,98318.09
2022-09-01T18:50:25.647Z,98319.78
2022-09-01T18:52:27.435Z,98322.34
2022-09-01T18:54:28.754Z,98321.50
2022-09-01T18:56:32.356Z,98324.09
2022-09-01T18:58:36.959Z,98324.09
2022-09-01T19:00:38.275Z,98324.09
2022-09-01T19:02:40.235Z,98317.28
2022-09-01T19:04:42.315Z,98313.91
2022-09-01T19:06:43.748Z,98318.16
2022-09-01T19:08:45.092Z,98308.78
2022-09-01T19:10:46.471Z,98313.03
2022-09-01T19:12:47.831Z,98322.38
2022-09-01T19:14:49.174Z,98314.75
2022-09-01T19:16:52.270Z,98319.84
2022-09-01T19:18:53.936Z,98319.84
2022-09-01T19:20:55.325Z,98319.84
2022-09-01T19:22:59.013Z,98320.72
2022-09-01T19:25:20.300Z,98327.53
2022-09-01T19:27:21.688Z,98347.09
2022-09-01T19:29:23.017Z,98324.13
2022-09-01T19:31:24.399Z,98323.28
2022-09-01T19:33:25.961Z,98325.00
2022-09-01T19:35:27.539Z,98326.72
2022-09-01T19:37:28.895Z,98320.75
2022-09-01T19:39:30.224Z,98323.31
2022-09-01T19:41:33.035Z,98317.38
2022-09-01T19:43:36.379Z,98319.06
2022-09-01T19:45:37.962Z,98312.28
2022-09-01T19:47:39.293Z,98321.66
2022-09-01T19:49:40.687Z,98318.25
2022-09-01T19:51:42.127Z,98325.91
2022-09-01T19:53:43.671Z,98326.75
2022-09-01T19:55:44.995Z,98328.47
2022-09-01T19:57:46.443Z,98332.72
2022-09-01T19:59:47.804Z,98334.41
2022-09-01T20:01:49.294Z,98335.25
2022-09-01T20:03:50.685Z,98329.31
2022-09-01T20:05:52.006Z,98339.53
2022-09-01T20:07:54.001Z,98337.84
2022-09-01T20:09:55.315Z,98332.75
2022-09-01T20:11:56.662Z,98341.25
2022-09-01T20:13:57.975Z,98334.47
2022-09-01T20:16:00.465Z,98336.19
2022-09-01T20:18:02.401Z,98333.63
2022-09-01T20:20:03.731Z,98327.69
2022-09-01T20:22:05.047Z,98330.22
2022-09-01T20:24:06.380Z,98326.84
2022-09-01T20:26:07.699Z,98329.38
2022-09-01T20:28:09.230Z,98326.84
2022-09-01T20:30:12.232Z,98334.50
2022-09-01T20:32:13.558Z,98325.16
2022-09-01T20:34:15.180Z,98339.63
2022-09-01T20:36:16.506Z,98337.06
2022-09-01T20:38:38.599Z,98328.56
2022-09-01T20:40:43.639Z,98332.81
2022-09-01T20:42:45.174Z,98335.38
2022-09-01T20:44:46.500Z,98331.97
2022-09-01T20:46:47.837Z,98329.41
2022-09-01T20:48:49.163Z,98330.31
2022-09-01T20:50:50.502Z,98335.41
2022-09-01T20:52:51.819Z,98340.50
2022-09-01T20:54:53.401Z,98332.84
2022-09-01T20:56:54.747Z,98335.41
2022-09-01T20:58:56.068Z,98340.50
2022-09-01T21:00:57.522Z,98337.09
2022-09-01T21:02:58.938Z,98338.00
2022-09-01T21:05:00.374Z,98341.38
2022-09-01T21:07:01.753Z,98331.19
2022-09-01T21:09:03.115Z,98339.69
2022-09-01T21:11:04.443Z,98340.53
2022-09-01T21:13:05.764Z,98343.94
2022-09-01T21:15:07.227Z,98340.53
2022-09-01T21:17:08.571Z,98338.78
2022-09-01T21:19:10.022Z,98337.69
2022-09-01T21:21:11.430Z,98332.63
2022-09-01T21:23:16.138Z,98334.13
2022-09-01T21:25:17.450Z,98324.69
2022-09-01T21:27:18.816Z,98325.06
2022-09-01T21:29:20.175Z,98332.41
2022-09-01T21:31:21.630Z,98324.47
2022-09-01T21:33:23.199Z,98331.31
2022-09-01T21:35:24.698Z,98330.41
2022-09-01T21:37:26.056Z,98333.06
2022-09-01T21:39:27.471Z,98329.44
2022-09-01T21:41:28.835Z,98329.09
2022-09-01T21:43:30.216Z,98319.94
2022-09-01T21:45:33.876Z,98321.56
2022-09-01T21:47:35.249Z,98329.50
2022-09-01T21:49:36.569Z,98328.00
2022-09-01T21:51:37.928Z,98324.50
2022-09-01T21:53:39.275Z,98329.59
2022-09-01T21:55:42.847Z,98325.09
2022-09-01T21:57:45.920Z,98325.97
2022-09-01T21:59:47.239Z,98330.16
2022-09-01T22:01:48.677Z,98329.25
2022-09-01T22:03:50.093Z,98321.66
2022-09-01T22:05:51.534Z,98319.16
2022-09-01T22:07:52.957Z,98322.63
2022-09-01T22:09:54.366Z,98322.50
2022-09-01T22:11:55.698Z,98317.56
2022-09-01T22:13:57.019Z,98322.78
2022-09-01T22:15:58.396Z,98315.09
2022-09-01T22:17:59.750Z,98188.00
2022-09-01T22:20:01.073Z,98319.25
2022-09-01T22:22:03.161Z,98314.19
2022-09-01T22:24:06.549Z,98317.50
2022-09-01T22:26:09.650Z,98308.47
2022-09-01T22:28:13.953Z,98308.34
2022-09-01T22:30:15.525Z,98310.44
2022-09-01T22:32:16.831Z,98305.44
2022-09-01T22:34:18.207Z,98310.66
2022-09-01T22:36:19.774Z,98313.16
2022-09-01T22:38:21.324Z,98310.56
2022-09-01T22:40:22.702Z,98307.13
2022-09-01T22:42:24.847Z,98301.28
2022-09-01T22:44:26.156Z,98304.22
2022-09-01T22:46:27.503Z,98297.22
2022-09-01T22:48:29.059Z,98307.44
2022-09-01T22:50:30.379Z,98300.59
2022-09-01T22:52:31.735Z,98308.19
2022-09-01T22:54:33.139Z,98311.22
2022-09-01T22:56:35.143Z,98305.78
2022-09-01T22:58:36.499Z,98309.16
2022-09-01T23:00:37.859Z,98304.00
2022-09-01T23:02:39.263Z,98300.13
2022-09-01T23:04:42.367Z,98307.78
2022-09-01T23:06:44.388Z,98300.94
2022-09-01T23:08:45.783Z,98306.97
2022-09-01T23:10:47.171Z,98302.75
2022-09-01T23:12:48.567Z,98309.53
2022-09-01T23:14:49.886Z,98297.63
2022-09-01T23:16:51.991Z,98310.38
2022-09-01T23:18:53.449Z,98308.59
2022-09-01T23:20:54.800Z,98302.69
2022-09-01T23:22:56.147Z,98298.31
2022-09-01T23:24:57.507Z,98303.34
2022-09-01T23:26:58.858Z,98293.16
2022-09-01T23:29:00.175Z,98296.63
2022-09-01T23:31:01.878Z,98295.69
2022-09-01T23:33:03.241Z,98286.59
2022-09-01T23:35:04.690Z,98294.44
2022-09-01T23:37:06.020Z,98300.53
2022-09-01T23:39:07.355Z,98301.47
2022-09-01T23:41:08.723Z,98294.72
2022-09-01T23:43:10.050Z,98291.38
2022-09-01T23:45:11.403Z,98295.69
2022-09-01T23:47:12.803Z,98292.38
2022-09-01T23:49:14.220Z,98301.75
2022-09-01T23:51:15.536Z,98293.28
2022-09-01T23:53:16.892Z,98289.03
2022-09-01T23:55:18.471Z,98283.13
2022-09-01T23:57:20.610Z,98278.91
2022-09-01T23:59:27.606Z,98289.13
